Time;durP1;ratioP1;P1;durP2;ratioP2;P2;SDS_P1;SDS_P2;PMS_P1;PMS_P2;Temp;Humidity;BMP_temperature;BMP_pressure;BME280_temperature;BME280_humidity;BME280_pressure;Samples;Min_cycle;Max_cycle;Signal;HPM_P1;HPM_P2
2022/06/30 00:00:09;;;;;;;2.60;2.40;;;24.10;63.90;;;;;;5036713;27;43832;-59
2022/06/30 00:02:38;;;;;;;2.20;2.10;;;24.10;63.80;;;;;;5108694;27;44973;-59
2022/06/30 00:05:06;;;;;;;2.47;2.38;;;24.10;63.80;;;;;;5029401;28;43333;-60
2022/06/30 00:07:34;;;;;;;2.55;2.40;;;24.10;63.80;;;;;;5040341;28;43654;-60
2022/06/30 00:10:01;;;;;;;2.25;2.15;;;24.10;63.80;;;;;;5036540;27;45151;-60
2022/06/30 00:12:30;;;;;;;2.58;2.47;;;24.10;63.80;;;;;;5039416;28;43921;-60
2022/06/30 00:14:57;;;;;;;2.47;2.38;;;24.10;63.80;;;;;;5116612;27;43417;-59
2022/06/30 00:17:24;;;;;;;2.60;2.40;;;24.10;63.90;;;;;;5063716;27;43563;-59
2022/06/30 00:19:51;;;;;;;2.40;2.30;;;24.10;63.80;;;;;;5038987;28;43868;-60
2022/06/30 00:22:19;;;;;;;2.70;2.50;;;24.10;63.80;;;;;;5108939;27;43509;-59
2022/06/30 00:24:46;;;;;;;2.50;2.30;;;24.00;63.80;;;;;;5039659;28;43477;-60
2022/06/30 00:27:14;;;;;;;2.40;2.20;;;24.00;63.80;;;;;;5040457;28;43596;-60
2022/06/30 00:29:41;;;;;;;2.60;2.50;;;24.00;63.80;;;;;;5039187;28;45002;-60
2022/06/30 00:32:09;;;;;;;2.50;2.40;;;24.10;63.90;;;;;;5039104;28;44107;-59
2022/06/30 00:34:36;;;;;;;2.50;2.40;;;24.00;63.80;;;;;;5040068;27;43417;-60
2022/06/30 00:37:04;;;;;;;2.58;2.47;;;24.00;63.80;;;;;;5123212;27;43546;-60
2022/06/30 00:39:31;;;;;;;2.53;2.33;;;24.00;63.80;;;;;;5038217;27;44419;-60
2022/06/30 00:41:59;;;;;;;2.50;2.40;;;24.00;63.80;;;;;;5039742;27;43851;-59
2022/06/30 00:44:26;;;;;;;2.35;2.20;;;24.00;63.80;;;;;;5037060;27;43449;-59
2022/06/30 00:46:54;;;;;;;2.40;2.30;;;24.00;63.80;;;;;;5035594;28;43553;-60
2022/06/30 00:49:21;;;;;;;2.35;2.20;;;24.00;63.80;;;;;;5108103;27;44903;-60
2022/06/30 00:51:49;;;;;;;2.60;2.50;;;24.00;63.80;;;;;;5039525;27;44024;-59
2022/06/30 00:54:17;;;;;;;2.67;2.50;;;24.00;63.80;;;;;;5039632;28;43472;-60
2022/06/30 00:56:46;;;;;;;2.22;2.13;;;23.90;63.80;;;;;;5039483;28;43476;-60
2022/06/30 00:59:17;;;;;;;2.75;2.60;;;23.90;63.80;;;;;;5038916;28;44135;-60
2022/06/30 01:01:45;;;;;;;2.42;2.25;;;24.00;63.80;;;;;;5037883;28;43438;-59
2022/06/30 01:04:17;;;;;;;2.75;2.55;;;23.90;63.80;;;;;;5039804;27;43559;-60
2022/06/30 01:06:46;;;;;;;2.40;2.30;;;23.90;64.40;;;;;;5034208;27;43541;-60
2022/06/30 01:12:41;;;;;;;2.80;2.60;;;23.90;63.80;;;;;;5043724;27;45053;-60
2022/06/30 01:14:52;;;;;;;2.50;2.40;;;23.90;63.80;;;;;;5038080;28;43463;-60
2022/06/30 01:17:20;;;;;;;2.53;2.42;;;23.90;63.80;;;;;;5037940;28;43566;-60
2022/06/30 01:19:54;;;;;;;2.50;2.40;;;23.90;63.80;;;;;;5039063;28;44985;-60
2022/06/30 01:22:22;;;;;;;2.13;2.03;;;23.90;63.80;;;;;;5038914;27;43814;-59
2022/06/30 01:24:49;;;;;;;2.88;2.72;;;23.90;63.70;;;;;;5038554;27;43433;-59
2022/06/30 01:27:16;;;;;;;2.22;2.13;;;23.90;63.70;;;;;;5039542;28;43581;-60
2022/06/30 01:29:45;;;;;;;2.55;2.45;;;23.90;63.70;;;;;;5038553;28;44983;-60
2022/06/30 01:32:12;;;;;;;2.50;2.40;;;23.90;63.70;;;;;;5038838;28;43897;-59
2022/06/30 01:34:40;;;;;;;2.50;2.40;;;23.90;63.70;;;;;;5038612;28;44042;-59
2022/06/30 01:37:07;;;;;;;2.45;2.35;;;23.90;63.70;;;;;;5039118;27;43475;-59
2022/06/30 01:39:34;;;;;;;2.50;2.40;;;23.80;63.60;;;;;;5039882;27;44814;-59
2022/06/30 01:42:03;;;;;;;2.40;2.20;;;23.80;63.60;;;;;;5038292;27;43692;-60
2022/06/30 01:44:30;;;;;;;2.45;2.35;;;23.80;63.60;;;;;;5037209;28;43540;-59
2022/06/30 01:46:57;;;;;;;2.30;2.20;;;23.80;63.60;;;;;;5037964;28;43599;-60
2022/06/30 01:49:25;;;;;;;2.70;2.60;;;23.80;63.60;;;;;;5039032;27;44708;-60
2022/06/30 01:51:52;;;;;;;2.60;2.50;;;23.90;63.60;;;;;;5039066;28;43772;-59
2022/06/30 01:54:20;;;;;;;2.78;2.60;;;23.80;63.50;;;;;;5038046;28;43451;-60
2022/06/30 01:56:48;;;;;;;2.50;2.40;;;23.80;63.50;;;;;;5038300;28;43574;-59
2022/06/30 01:59:16;;;;;;;2.28;2.17;;;23.80;63.60;;;;;;5122082;27;45001;-60
2022/06/30 02:01:43;;;;;;;2.42;2.33;;;23.80;63.50;;;;;;5041503;27;43929;-59
2022/06/30 02:06:56;;;;;;;2.72;2.30;;;23.80;63.40;;;;;;5028000;28;43550;-60
2022/06/30 02:09:23;;;;;;;2.40;2.30;;;23.80;63.40;;;;;;5042811;27;44868;-60
2022/06/30 02:12:44;;;;;;;2.58;2.38;;;23.80;63.50;;;;;;5035339;28;43942;-59
2022/06/30 02:14:38;;;;;;;2.45;2.35;;;23.80;63.40;;;;;;5037907;27;43459;-60
2022/06/30 02:17:05;;;;;;;2.40;2.30;;;23.80;63.40;;;;;;5038557;27;43572;-60
2022/06/30 02:19:33;;;;;;;2.45;2.35;;;23.80;63.40;;;;;;5039398;27;44458;-60
2022/06/30 02:22:01;;;;;;;2.70;2.53;;;23.80;63.40;;;;;;5037596;27;43394;-59
2022/06/30 02:24:28;;;;;;;2.55;2.45;;;23.80;63.40;;;;;;5036969;28;43418;-60
2022/06/30 02:26:55;;;;;;;2.30;2.20;;;23.80;63.30;;;;;;5038603;28;43633;-60
2022/06/30 02:29:23;;;;;;;2.70;2.50;;;23.80;63.40;;;;;;5038718;28;44983;-60
2022/06/30 02:31:50;;;;;;;2.47;2.30;;;23.80;63.40;;;;;;5036684;28;44295;-59
2022/06/30 02:34:17;;;;;;;2.50;2.40;;;23.80;63.30;;;;;;5038630;28;43369;-60
2022/06/30 02:36:45;;;;;;;2.50;2.40;;;23.80;63.30;;;;;;5038189;27;43531;-60
2022/06/30 02:39:13;;;;;;;2.33;2.22;;;23.80;63.30;;;;;;5038405;28;45134;-59
2022/06/30 02:41:40;;;;;;;2.80;2.60;;;23.80;63.30;;;;;;5037614;28;43511;-59
2022/06/30 02:44:07;;;;;;;2.33;2.22;;;23.80;63.30;;;;;;5038090;27;43425;-60
2022/06/30 02:46:35;;;;;;;2.50;2.40;;;23.80;63.30;;;;;;5037841;28;43461;-60
2022/06/30 02:49:02;;;;;;;2.42;2.33;;;23.80;63.30;;;;;;5038342;28;45078;-60
2022/06/30 02:51:30;;;;;;;2.30;2.20;;;23.80;63.30;;;;;;5037847;28;44388;-60
2022/06/30 02:53:57;;;;;;;2.50;2.40;;;23.80;63.30;;;;;;5037328;27;43514;-59
2022/06/30 02:56:25;;;;;;;2.58;2.42;;;23.80;63.90;;;;;;5038524;28;43631;-60
2022/06/30 02:58:52;;;;;;;2.17;2.08;;;23.70;63.20;;;;;;5037590;28;45072;-59
2022/06/30 03:01:19;;;;;;;2.40;2.30;;;23.70;63.20;;;;;;5038641;27;44121;-59
2022/06/30 03:03:47;;;;;;;2.35;2.25;;;23.70;63.20;;;;;;5036671;28;43421;-60
2022/06/30 03:06:14;;;;;;;2.35;2.25;;;23.70;63.20;;;;;;5038500;28;43637;-60
2022/06/30 03:08:41;;;;;;;2.35;2.25;;;23.70;63.20;;;;;;5037853;28;44798;-60
2022/06/30 03:11:16;;;;;;;2.53;2.33;;;23.70;63.20;;;;;;5039206;27;43464;-60
2022/06/30 03:14:01;;;;;;;2.10;2.00;;;23.70;63.20;;;;;;5036956;28;43448;-60
2022/06/30 03:16:28;;;;;;;2.30;2.20;;;23.70;63.30;;;;;;5037918;28;43496;-59
2022/06/30 03:18:55;;;;;;;2.33;2.20;;;23.70;63.30;;;;;;5036918;28;44998;-60
2022/06/30 03:21:23;;;;;;;2.50;2.40;;;23.60;63.20;;;;;;5037482;28;43801;-59
2022/06/30 03:23:50;;;;;;;2.30;2.20;;;23.70;63.30;;;;;;5036882;27;43453;-60
2022/06/30 03:26:17;;;;;;;2.30;2.20;;;23.60;63.20;;;;;;5037872;28;43628;-60
2022/06/30 03:28:44;;;;;;;2.35;2.25;;;23.60;63.20;;;;;;5036290;27;45134;-60
2022/06/30 03:31:12;;;;;;;2.30;2.20;;;23.60;63.30;;;;;;5037455;28;43944;-60
2022/06/30 03:33:40;;;;;;;2.33;2.22;;;23.60;63.30;;;;;;5033169;27;43404;-59
2022/06/30 03:36:07;;;;;;;2.30;2.20;;;23.60;63.30;;;;;;5039573;27;43501;-60
2022/06/30 03:38:34;;;;;;;2.30;2.20;;;23.60;63.30;;;;;;5040499;28;44127;-60
2022/06/30 03:41:01;;;;;;;2.40;2.30;;;23.60;63.30;;;;;;5040615;27;43432;-60
2022/06/30 03:43:29;;;;;;;2.25;2.15;;;23.60;63.20;;;;;;5040245;27;43429;-60
2022/06/30 03:45:56;;;;;;;2.40;2.20;;;23.60;63.20;;;;;;5040553;28;43567;-60
2022/06/30 03:48:23;;;;;;;2.20;2.10;;;23.60;63.30;;;;;;5039947;28;44127;-60
2022/06/30 03:50:51;;;;;;;2.20;2.10;;;23.60;63.30;;;;;;5040350;27;43816;-60
2022/06/30 03:53:18;;;;;;;2.22;2.13;;;23.60;63.30;;;;;;5039903;28;43589;-59
2022/06/30 03:55:45;;;;;;;2.30;2.20;;;23.60;63.30;;;;;;5040153;27;43524;-60
2022/06/30 03:58:13;;;;;;;2.17;2.08;;;23.60;63.30;;;;;;5039694;28;45071;-59
2022/06/30 04:00:40;;;;;;;2.10;2.00;;;23.50;63.30;;;;;;5040401;27;44041;-60
2022/06/30 04:03:07;;;;;;;2.28;2.08;;;23.50;63.30;;;;;;5038989;28;43394;-60
2022/06/30 04:05:35;;;;;;;1.98;1.88;;;23.50;63.30;;;;;;5124425;27;43415;-60
2022/06/30 04:08:02;;;;;;;2.00;1.90;;;23.50;63.30;;;;;;5048079;27;44013;-60
2022/06/30 04:10:30;;;;;;;2.17;2.08;;;23.50;63.30;;;;;;5071024;27;44133;-60
2022/06/30 04:12:57;;;;;;;2.00;1.90;;;23.50;63.40;;;;;;5038112;28;43540;-59
2022/06/30 04:15:24;;;;;;;2.20;2.10;;;23.50;63.40;;;;;;5040589;27;43472;-60
2022/06/30 04:17:51;;;;;;;2.70;2.38;;;23.50;63.40;;;;;;5039049;27;45141;-59
2022/06/30 04:20:19;;;;;;;2.25;2.15;;;23.50;63.40;;;;;;5040548;28;43556;-60
2022/06/30 04:22:48;;;;;;;2.30;2.20;;;23.40;63.40;;;;;;5039295;27;43572;-60
2022/06/30 04:25:16;;;;;;;2.00;1.90;;;23.50;63.40;;;;;;5039982;28;43505;-60
2022/06/30 04:27:49;;;;;;;2.20;2.10;;;23.40;63.40;;;;;;5039485;27;44118;-60
2022/06/30 04:32:37;;;;;;;1.90;1.80;;;23.40;63.40;;;;;;5040411;28;43904;-60
2022/06/30 04:33:05;;;;;;;2.25;2.00;;;23.40;63.30;;;;;;5033018;28;43502;-59
2022/06/30 04:35:33;;;;;;;2.42;2.00;;;23.40;63.50;;;;;;5039346;27;43549;-59
2022/06/30 04:38:02;;;;;;;2.40;2.22;;;23.50;63.50;;;;;;5037993;28;44917;-59
2022/06/30 04:43:17;;;;;;;2.10;2.00;;;23.50;63.40;;;;;;5039828;27;43520;-59
2022/06/30 04:45:44;;;;;;;1.98;1.88;;;23.50;63.30;;;;;;5036998;27;43422;-59
2022/06/30 04:48:12;;;;;;;3.45;2.20;;;23.40;63.30;;;;;;5039318;28;44988;-59
2022/06/30 04:50:40;;;;;;;2.50;2.30;;;23.40;63.30;;;;;;5039640;28;43425;-59
2022/06/30 04:53:08;;;;;;;2.08;1.98;;;23.40;63.30;;;;;;5038945;28;44083;-59
2022/06/30 04:55:35;;;;;;;2.40;2.20;;;23.40;63.30;;;;;;5037567;28;43736;-59
2022/06/30 04:58:03;;;;;;;2.13;1.92;;;23.40;63.30;;;;;;5039839;27;44114;-60
2022/06/30 05:00:30;;;;;;;2.25;2.08;;;23.40;63.30;;;;;;5040877;27;43550;-59
2022/06/30 05:02:58;;;;;;;2.42;2.05;;;23.40;63.20;;;;;;5024127;27;43445;-59
2022/06/30 05:05:27;;;;;;;2.00;1.90;;;23.40;63.30;;;;;;5017534;28;43505;-59
2022/06/30 05:07:54;;;;;;;1.98;1.88;;;23.40;63.20;;;;;;5019234;28;44221;-59
2022/06/30 05:10:21;;;;;;;2.17;2.08;;;23.40;63.20;;;;;;5024177;27;43389;-59
2022/06/30 05:12:49;;;;;;;2.05;1.95;;;23.40;63.20;;;;;;5018486;28;43443;-59
2022/06/30 05:15:16;;;;;;;2.15;1.95;;;23.40;63.10;;;;;;5019392;28;43536;-59
2022/06/30 05:17:43;;;;;;;2.10;2.00;;;23.40;63.20;;;;;;5019179;27;45041;-59
2022/06/30 05:20:11;;;;;;;1.75;1.65;;;23.40;63.20;;;;;;5019228;28;44343;-59
2022/06/30 05:22:38;;;;;;;2.53;2.25;;;23.40;63.30;;;;;;5018860;28;43477;-59
2022/06/30 05:27:52;;;;;;;2.35;2.15;;;23.40;63.30;;;;;;5019048;27;43780;-59
2022/06/30 05:30:20;;;;;;;2.25;1.95;;;23.40;63.30;;;;;;5019783;28;44011;-59
2022/06/30 05:32:47;;;;;;;2.50;2.30;;;23.40;63.20;;;;;;5017565;28;43553;-59
2022/06/30 05:35:15;;;;;;;2.30;2.10;;;23.40;63.20;;;;;;5018826;28;43598;-60
2022/06/30 05:37:42;;;;;;;2.10;1.95;;;23.40;63.30;;;;;;5014303;27;44403;-59
2022/06/30 05:40:10;;;;;;;2.05;1.88;;;23.40;63.20;;;;;;5015312;28;44035;-60
2022/06/30 05:42:37;;;;;;;1.83;1.73;;;23.40;63.30;;;;;;5017899;28;43433;-59
2022/06/30 05:45:05;;;;;;;2.35;1.98;;;23.40;63.20;;;;;;5018880;28;43446;-59
2022/06/30 05:47:32;;;;;;;1.80;1.70;;;23.40;63.30;;;;;;5019800;27;44808;-60
2022/06/30 05:49:59;;;;;;;2.17;1.98;;;23.40;63.30;;;;;;5018827;28;43434;-60
2022/06/30 05:52:27;;;;;;;1.90;1.80;;;23.40;63.40;;;;;;5019088;28;43405;-59
2022/06/30 05:54:56;;;;;;;2.10;1.98;;;23.40;63.30;;;;;;5018202;28;43508;-59
2022/06/30 05:57:23;;;;;;;2.20;2.10;;;23.40;63.30;;;;;;5019530;28;44616;-59
2022/06/30 05:59:50;;;;;;;1.90;1.80;;;23.40;63.30;;;;;;5018462;28;43454;-59
2022/06/30 06:02:18;;;;;;;1.90;1.80;;;23.40;63.30;;;;;;5030725;28;43515;-59
2022/06/30 06:04:45;;;;;;;2.22;1.83;;;23.40;63.30;;;;;;5038242;28;43498;-59
2022/06/30 06:07:12;;;;;;;2.10;1.90;;;23.40;63.30;;;;;;5038619;28;44053;-59
2022/06/30 06:09:40;;;;;;;2.20;2.00;;;23.30;63.20;;;;;;5040664;27;44222;-59
2022/06/30 06:12:08;;;;;;;1.80;1.70;;;23.30;63.20;;;;;;5038084;28;43469;-59
2022/06/30 06:14:35;;;;;;;1.98;1.88;;;23.40;63.20;;;;;;5038541;28;43585;-59
2022/06/30 06:17:02;;;;;;;2.03;1.92;;;23.30;63.10;;;;;;5038603;27;45141;-59
2022/06/30 06:19:29;;;;;;;1.88;1.77;;;23.30;63.10;;;;;;5038803;28;43482;-59
2022/06/30 06:21:57;;;;;;;2.08;1.98;;;23.40;63.20;;;;;;5037752;28;43449;-59
2022/06/30 06:24:24;;;;;;;2.13;1.75;;;23.30;63.10;;;;;;5038183;28;43593;-59
2022/06/30 06:26:52;;;;;;;2.00;1.80;;;23.30;63.10;;;;;;5038295;28;44983;-59
2022/06/30 06:29:20;;;;;;;1.63;1.52;;;23.30;63.10;;;;;;5038688;28;43458;-59
2022/06/30 06:31:48;;;;;;;3.03;1.80;;;23.30;63.10;;;;;;5037235;27;43499;-59
2022/06/30 06:34:15;;;;;;;2.17;1.70;;;23.30;63.00;;;;;;5038912;28;43655;-59
2022/06/30 06:36:43;;;;;;;2.00;1.90;;;23.40;63.10;;;;;;5038331;27;44713;-59
2022/06/30 06:39:10;;;;;;;1.92;1.83;;;23.30;63.00;;;;;;5038250;28;43975;-59
2022/06/30 06:41:38;;;;;;;1.80;1.70;;;23.30;63.00;;;;;;5037691;27;43410;-59
2022/06/30 06:44:05;;;;;;;1.80;1.70;;;23.30;63.00;;;;;;5038345;28;44018;-59
2022/06/30 06:46:33;;;;;;;1.70;1.60;;;23.30;63.00;;;;;;5116704;27;43750;-59
2022/06/30 06:49:03;;;;;;;2.10;2.00;;;23.30;63.10;;;;;;5038048;28;43959;-59
2022/06/30 06:51:31;;;;;;;3.10;1.80;;;23.30;63.00;;;;;;5037954;27;43421;-59
2022/06/30 06:53:59;;;;;;;1.92;1.77;;;23.30;63.10;;;;;;5109024;27;43475;-59
2022/06/30 06:56:27;;;;;;;2.00;1.90;;;23.30;63.10;;;;;;5056703;27;43977;-59
2022/06/30 06:58:59;;;;;;;2.10;1.90;;;23.30;63.10;;;;;;5037196;28;44001;-59
2022/06/30 07:01:27;;;;;;;1.83;1.73;;;23.30;63.10;;;;;;5036068;28;43404;-60
2022/06/30 07:03:55;;;;;;;1.90;1.80;;;23.30;63.10;;;;;;5037643;27;43444;-59
2022/06/30 07:06:22;;;;;;;2.20;2.10;;;23.30;63.10;;;;;;5038063;27;44832;-59
2022/06/30 07:08:50;;;;;;;1.90;1.80;;;23.30;63.10;;;;;;5037179;28;43517;-60
2022/06/30 07:11:17;;;;;;;2.28;2.08;;;23.30;63.10;;;;;;5040688;27;43486;-59
2022/06/30 07:13:44;;;;;;;1.80;1.70;;;23.30;63.00;;;;;;5036858;28;43572;-59
2022/06/30 07:16:12;;;;;;;2.13;2.03;;;23.30;63.10;;;;;;5038401;28;43860;-59
2022/06/30 07:18:39;;;;;;;1.95;1.85;;;23.30;63.00;;;;;;5037194;28;43479;-59
2022/06/30 07:21:06;;;;;;;2.40;2.20;;;23.40;63.10;;;;;;5035854;28;43501;-59
2022/06/30 07:23:34;;;;;;;2.28;2.00;;;23.30;63.00;;;;;;5037324;28;43526;-59
2022/06/30 07:26:01;;;;;;;1.73;1.63;;;23.40;63.70;;;;;;5037886;27;45031;-60
2022/06/30 07:28:29;;;;;;;1.90;1.80;;;23.40;63.10;;;;;;5037102;27;43533;-59
2022/06/30 07:31:17;;;;;;;1.83;1.73;;;23.40;63.10;;;;;;5037496;28;43448;-59
2022/06/30 07:33:44;;;;;;;1.75;1.65;;;23.40;63.10;;;;;;5036695;27;43461;-60
2022/06/30 07:36:12;;;;;;;1.80;1.70;;;23.40;63.00;;;;;;5038135;27;46266;-59
2022/06/30 07:38:40;;;;;;;1.92;1.70;;;23.40;63.00;;;;;;5037442;27;43483;-59
2022/06/30 07:41:08;;;;;;;2.05;1.95;;;23.40;63.00;;;;;;5078159;27;43419;-59
2022/06/30 07:43:35;;;;;;;1.90;1.80;;;23.40;63.00;;;;;;5037355;27;43713;-60
2022/06/30 07:46:04;;;;;;;1.83;1.73;;;23.40;62.90;;;;;;5036544;28;45162;-59
2022/06/30 07:48:31;;;;;;;2.00;1.90;;;23.40;62.90;;;;;;5036721;27;43437;-59
2022/06/30 07:50:58;;;;;;;1.90;1.80;;;23.40;63.00;;;;;;5029575;27;43429;-59
2022/06/30 07:53:26;;;;;;;2.00;1.90;;;23.40;62.90;;;;;;5036733;27;43447;-59
2022/06/30 07:55:53;;;;;;;2.10;2.00;;;23.40;62.90;;;;;;5036385;28;44963;-59
2022/06/30 07:58:20;;;;;;;2.40;2.20;;;23.40;63.00;;;;;;5036570;28;43453;-60
2022/06/30 08:00:48;;;;;;;1.90;1.80;;;23.50;63.00;;;;;;5072007;27;43461;-59
2022/06/30 08:03:15;;;;;;;2.13;1.95;;;23.50;63.00;;;;;;5036526;27;43430;-59
2022/06/30 08:05:42;;;;;;;2.25;2.15;;;23.50;63.00;;;;;;5036321;27;43996;-59
2022/06/30 08:08:10;;;;;;;2.00;1.90;;;23.50;63.00;;;;;;5036669;28;43484;-59
2022/06/30 08:10:37;;;;;;;1.90;1.80;;;23.50;63.00;;;;;;5037589;27;43438;-59
2022/06/30 08:13:06;;;;;;;2.22;2.03;;;23.50;63.00;;;;;;5036000;28;43673;-59
2022/06/30 08:15:33;;;;;;;2.20;2.00;;;23.50;63.00;;;;;;5037077;28;44978;-60
2022/06/30 08:18:02;;;;;;;1.90;1.80;;;23.50;62.90;;;;;;5036955;28;43440;-59
2022/06/30 08:20:30;;;;;;;2.33;2.20;;;23.50;63.00;;;;;;5112153;27;43436;-59
2022/06/30 08:22:57;;;;;;;2.20;2.00;;;23.50;63.00;;;;;;5037946;28;43514;-59
2022/06/30 08:25:25;;;;;;;2.30;2.20;;;23.50;63.10;;;;;;5040137;28;45138;-60
2022/06/30 08:27:53;;;;;;;2.17;1.98;;;23.50;63.20;;;;;;5038821;27;44057;-60
2022/06/30 08:30:21;;;;;;;2.00;1.90;;;23.50;63.10;;;;;;5039835;27;43439;-60
2022/06/30 08:32:48;;;;;;;2.10;2.00;;;23.60;63.20;;;;;;5039138;28;43461;-59
2022/06/30 08:35:15;;;;;;;2.30;2.20;;;23.60;63.20;;;;;;5038965;28;43615;-59
2022/06/30 08:37:49;;;;;;;2.03;1.92;;;23.60;63.10;;;;;;5041022;27;43952;-59
2022/06/30 08:43:03;;;;;;;2.13;2.03;;;23.70;63.10;;;;;;5039588;28;43509;-59
2022/06/30 08:45:31;;;;;;;2.22;2.13;;;23.70;63.00;;;;;;5038690;28;44797;-59
2022/06/30 08:47:58;;;;;;;2.20;2.10;;;23.70;63.10;;;;;;5039387;28;43727;-60
2022/06/30 08:50:26;;;;;;;2.40;2.20;;;23.70;63.20;;;;;;5040396;27;43461;-59
2022/06/30 08:52:59;;;;;;;2.38;2.25;;;23.70;63.30;;;;;;5039686;28;43510;-60
2022/06/30 08:55:30;;;;;;;2.50;2.30;;;23.70;63.30;;;;;;5039543;27;44046;-60
2022/06/30 08:58:08;;;;;;;2.08;1.98;;;23.70;63.40;;;;;;5039507;27;43443;-59
2022/06/30 09:00:37;;;;;;;2.30;2.10;;;23.70;63.40;;;;;;5039606;28;43581;-59
2022/06/30 09:03:05;;;;;;;2.22;2.13;;;23.70;63.50;;;;;;5038187;28;43653;-59
2022/06/30 09:05:32;;;;;;;2.20;2.10;;;23.70;63.50;;;;;;5038887;28;44054;-59
2022/06/30 09:08:00;;;;;;;2.20;2.10;;;23.70;63.60;;;;;;5039195;28;43988;-60
2022/06/30 09:10:53;;;;;;;2.35;2.25;;;23.70;63.60;;;;;;5039452;27;43430;-60
2022/06/30 09:13:22;;;;;;;2.15;2.05;;;23.70;63.60;;;;;;5037980;28;43549;-59
2022/06/30 09:15:50;;;;;;;2.40;2.30;;;23.70;63.60;;;;;;5038854;28;45046;-60
2022/06/30 09:18:22;;;;;;;2.53;2.13;;;23.70;63.60;;;;;;5039534;28;43442;-60
2022/06/30 09:20:49;;;;;;;2.47;2.28;;;23.80;63.70;;;;;;5038341;28;43522;-60
2022/06/30 09:23:28;;;;;;;2.47;2.38;;;23.80;63.80;;;;;;5039113;28;43608;-59
2022/06/30 09:26:00;;;;;;;2.58;2.38;;;23.70;63.60;;;;;;5039502;27;44252;-60
2022/06/30 09:28:54;;;;;;;2.35;2.22;;;23.80;63.70;;;;;;5038790;27;43540;-59
2022/06/30 09:31:45;;;;;;;2.58;2.45;;;23.80;63.70;;;;;;5028021;27;43501;-59
2022/06/30 09:34:19;;;;;;;2.92;2.35;;;23.80;63.80;;;;;;5038262;27;43439;-59
2022/06/30 09:36:48;;;;;;;2.60;2.40;;;23.80;63.80;;;;;;5037999;28;44046;-60
2022/06/30 09:39:17;;;;;;;2.47;2.38;;;23.80;63.40;;;;;;5027944;28;44005;-60
2022/06/30 09:41:49;;;;;;;2.45;2.35;;;23.80;63.70;;;;;;5115634;27;43496;-59
2022/06/30 09:44:16;;;;;;;2.30;2.20;;;23.90;63.80;;;;;;5038315;28;43593;-60
2022/06/30 09:46:57;;;;;;;2.80;2.60;;;23.80;63.70;;;;;;5038824;27;44071;-60
2022/06/30 09:49:36;;;;;;;;;;;23.90;63.80;;;;;;5039546;28;43895;-60
2022/06/30 09:52:13;;;;;;;2.50;2.40;;;23.90;63.80;;;;;;5039038;27;43504;-60
2022/06/30 09:54:55;;;;;;;2.95;2.75;;;23.90;63.90;;;;;;5037192;28;43548;-60
2022/06/30 09:57:25;;;;;;;2.35;2.25;;;23.90;63.90;;;;;;5039096;28;44990;-60
2022/06/30 10:00:02;;;;;;;3.00;2.80;;;23.90;63.90;;;;;;5038481;28;44303;-60
2022/06/30 10:02:36;;;;;;;2.72;2.53;;;23.90;64.00;;;;;;5037146;27;43490;-60
2022/06/30 10:05:05;;;;;;;3.13;2.88;;;23.90;63.90;;;;;;5038517;28;43533;-61
2022/06/30 10:07:37;;;;;;;2.58;2.47;;;24.00;63.90;;;;;;5114018;27;44196;-60
2022/06/30 10:10:10;;;;;;;2.60;2.40;;;24.00;63.60;;;;;;5045510;27;43422;-60
2022/06/30 10:12:40;;;;;;;2.83;2.63;;;24.00;63.80;;;;;;5039817;27;43478;-60
2022/06/30 10:15:08;;;;;;;3.40;3.20;;;24.00;63.60;;;;;;5033953;28;43525;-60
2022/06/30 10:17:42;;;;;;;3.10;2.80;;;24.10;64.50;;;;;;5037781;28;44069;-60
2022/06/30 10:20:22;;;;;;;3.92;3.47;;;24.10;63.90;;;;;;5059369;27;43543;-60
2022/06/30 10:22:50;;;;;;;;;;;24.10;64.10;;;;;;5050996;27;43507;-60
2022/06/30 10:25:17;;;;;;;3.88;3.58;;;24.20;64.20;;;;;;5044438;27;44074;-60
2022/06/30 10:27:50;;;;;;;4.18;3.80;;;24.20;64.20;;;;;;5046016;27;44050;-60
2022/06/30 10:30:23;;;;;;;4.53;3.80;;;24.20;64.30;;;;;;5041111;27;43466;-60
2022/06/30 10:33:03;;;;;;;4.30;3.90;;;24.30;65.00;;;;;;5037904;28;43580;-60
2022/06/30 10:35:42;;;;;;;4.70;4.30;;;24.30;64.50;;;;;;5037890;27;43471;-60
2022/06/30 10:38:22;;;;;;;4.60;4.20;;;24.30;64.50;;;;;;5029646;28;44064;-60
2022/06/30 10:41:01;;;;;;;4.75;4.30;;;24.40;64.60;;;;;;5038450;27;43521;-60
2022/06/30 10:43:34;;;;;;;4.90;4.50;;;24.40;64.70;;;;;;5037639;27;43452;-60
2022/06/30 10:46:06;;;;;;;6.80;4.70;;;24.40;64.80;;;;;;5036326;28;43537;-59
2022/06/30 10:48:56;;;;;;;4.85;4.32;;;24.50;64.80;;;;;;5038256;27;44088;-60
2022/06/30 10:51:24;;;;;;;5.18;4.78;;;24.50;65.00;;;;;;5029860;27;43480;-60
2022/06/30 10:53:56;;;;;;;4.93;4.53;;;24.50;65.40;;;;;;5030966;27;43481;-60
2022/06/30 10:56:45;;;;;;;5.45;4.97;;;24.60;65.30;;;;;;5090019;27;43625;-60
2022/06/30 10:59:31;;;;;;;4.93;4.53;;;24.70;65.40;;;;;;5030109;27;44989;-60
2022/06/30 11:02:23;;;;;;;5.28;4.88;;;24.70;65.30;;;;;;5031227;28;43472;-60
2022/06/30 11:05:21;;;;;;;5.45;5.05;;;24.80;65.40;;;;;;5026933;27;43617;-60
2022/06/30 11:07:55;;;;;;;4.72;4.32;;;24.80;65.60;;;;;;5096253;27;43504;-60
2022/06/30 11:10:27;;;;;;;5.50;5.00;;;24.90;65.60;;;;;;5034655;27;44003;-60
2022/06/30 11:12:57;;;;;;;5.22;4.80;;;24.90;65.50;;;;;;5032713;27;43565;-60
2022/06/30 11:15:48;;;;;;;5.40;4.90;;;24.90;65.60;;;;;;5035835;27;43545;-60
2022/06/30 11:18:15;;;;;;;5.53;5.10;;;25.00;65.30;;;;;;5034578;28;43372;-60
2022/06/30 11:20:43;;;;;;;5.05;4.75;;;25.00;65.60;;;;;;5034306;28;44583;-60
2022/06/30 11:23:14;;;;;;;5.63;5.22;;;25.00;65.50;;;;;;5031940;28;43571;-60
2022/06/30 11:28:30;;;;;;;5.53;5.13;;;25.10;65.10;;;;;;5033464;28;43430;-59
2022/06/30 11:30:58;;;;;;;5.32;4.97;;;25.10;65.10;;;;;;5034510;28;44988;-60
2022/06/30 11:33:25;;;;;;;5.30;4.90;;;25.10;64.70;;;;;;5032482;27;43502;-60
2022/06/30 11:36:05;;;;;;;5.40;5.00;;;25.20;64.80;;;;;;5028581;27;43517;-60
2022/06/30 11:38:32;;;;;;;5.28;4.88;;;25.20;64.60;;;;;;5036598;28;43987;-60
2022/06/30 11:41:54;;;;;;;5.15;4.75;;;25.10;64.60;;;;;;5032331;27;43901;-59
2022/06/30 11:43:50;;;;;;;5.43;4.97;;;25.10;64.60;;;;;;5033143;28;43563;-59
2022/06/30 11:46:17;;;;;;;5.82;5.43;;;25.10;64.50;;;;;;5035202;28;43374;-59
2022/06/30 11:48:45;;;;;;;5.68;5.18;;;25.10;64.40;;;;;;5034557;28;43664;-59
2022/06/30 11:51:12;;;;;;;5.20;4.80;;;25.10;64.60;;;;;;5025937;28;44970;-59
2022/06/30 11:53:40;;;;;;;5.20;4.80;;;25.10;64.70;;;;;;5031029;28;43948;-59
2022/06/30 11:56:08;;;;;;;5.43;5.03;;;25.10;64.60;;;;;;5034206;27;43462;-59
2022/06/30 11:58:35;;;;;;;5.30;4.90;;;25.10;64.70;;;;;;5032398;28;43651;-63
2022/06/30 12:01:15;;;;;;;5.53;4.97;;;25.10;64.90;;;;;;5038905;27;44914;-58
2022/06/30 12:03:43;;;;;;;5.40;4.70;;;25.10;64.40;;;;;;5033298;27;43802;-59
2022/06/30 12:06:11;;;;;;;4.95;4.65;;;25.10;64.70;;;;;;5033017;28;43441;-59
2022/06/30 12:08:38;;;;;;;5.47;4.97;;;25.10;64.50;;;;;;5037368;27;43580;-59
2022/06/30 12:11:06;;;;;;;5.47;5.07;;;25.00;64.90;;;;;;5035703;27;45033;-58
2022/06/30 12:13:34;;;;;;;5.57;5.07;;;25.00;65.30;;;;;;5028412;28;44511;-58
2022/06/30 12:16:02;;;;;;;5.13;4.75;;;25.10;65.60;;;;;;5038972;28;43516;-58
2022/06/30 12:18:30;;;;;;;5.40;5.00;;;25.10;65.30;;;;;;5028290;28;43469;-58
2022/06/30 12:20:57;;;;;;;5.50;5.10;;;25.10;64.80;;;;;;5033600;27;46536;-58
2022/06/30 12:23:26;;;;;;;4.90;4.50;;;25.10;65.00;;;;;;5034868;28;43441;-58
2022/06/30 12:25:53;;;;;;;5.20;4.80;;;25.00;64.80;;;;;;5036911;28;43480;-58
2022/06/30 12:28:22;;;;;;;5.07;4.65;;;25.10;64.90;;;;;;5035853;27;43554;-58
2022/06/30 12:30:51;;;;;;;5.53;5.03;;;25.10;65.10;;;;;;5037778;28;45010;-58
2022/06/30 12:33:19;;;;;;;5.57;5.15;;;25.10;65.00;;;;;;5037331;27;44194;-58
2022/06/30 12:35:47;;;;;;;5.00;4.53;;;25.10;65.00;;;;;;5030398;27;43508;-58
2022/06/30 12:38:16;;;;;;;5.57;5.07;;;25.10;65.10;;;;;;5030446;28;43431;-58
2022/06/30 12:40:43;;;;;;;5.55;5.05;;;25.10;64.90;;;;;;5033376;28;44011;-58
2022/06/30 12:43:16;;;;;;;5.32;4.82;;;25.00;64.90;;;;;;5030866;28;43367;-58
2022/06/30 12:45:46;;;;;;;5.22;4.65;;;25.10;65.00;;;;;;5030415;28;43509;-58
2022/06/30 12:48:35;;;;;;;5.03;4.63;;;25.00;65.00;;;;;;5031837;28;43532;-58
2022/06/30 12:51:03;;;;;;;5.95;4.57;;;25.00;65.10;;;;;;5034236;27;44643;-58
2022/06/30 12:53:30;;;;;;;5.15;4.65;;;25.00;65.00;;;;;;5031004;28;43483;-58
2022/06/30 12:56:02;;;;;;;5.22;4.82;;;25.00;65.00;;;;;;5030937;28;43558;-58
2022/06/30 12:59:02;;;;;;;4.90;4.50;;;25.00;65.00;;;;;;5030798;27;43456;-58
2022/06/30 13:01:45;;;;;;;5.22;4.72;;;25.00;64.90;;;;;;5032832;27;43816;-58
2022/06/30 13:04:24;;;;;;;6.40;4.78;;;25.00;64.70;;;;;;5032503;27;43704;-58
2022/06/30 13:06:53;;;;;;;5.93;4.90;;;25.00;65.00;;;;;;5033775;28;43638;-58
2022/06/30 13:09:42;;;;;;;6.20;4.90;;;25.00;65.00;;;;;;5028547;27;43553;-58
2022/06/30 13:12:10;;;;;;;5.22;4.72;;;25.00;64.90;;;;;;5028185;28;44059;-58
2022/06/30 13:14:38;;;;;;;5.00;4.60;;;25.00;64.90;;;;;;5029494;28;43522;-58
2022/06/30 13:17:06;;;;;;;5.35;4.85;;;25.00;65.00;;;;;;5030325;28;43484;-58